Time;durP1;ratioP1;P1;durP2;ratioP2;P2;SDS_P1;SDS_P2;PMS_P1;PMS_P2;Temp;Humidity;BMP_temperature;BMP_pressure;BME280_temperature;BME280_humidity;BME280_pressure;Samples;Min_cycle;Max_cycle;Signal;HPM_P1;HPM_P2
2023/07/11 00:01:48;;;;;;;0.55;0.45;;;17.60;99.90;;;;;;5010426;28;20238;-64
2023/07/11 00:04:13;;;;;;;0.45;0.45;;;17.60;99.90;;;;;;5010854;28;20187;-64
2023/07/11 00:06:39;;;;;;;0.30;0.30;;;17.70;99.90;;;;;;5010980;28;20747;-65
2023/07/11 00:09:05;;;;;;;0.30;0.30;;;17.80;99.90;;;;;;5010929;28;20273;-65
2023/07/11 00:11:31;;;;;;;0.40;0.40;;;17.90;99.90;;;;;;5010374;28;20211;-64
2023/07/11 00:13:59;;;;;;;0.38;0.38;;;17.90;99.90;;;;;;5017743;28;20265;-64
2023/07/11 00:16:25;;;;;;;0.55;0.45;;;18.00;99.90;;;;;;5010581;28;20669;-65
2023/07/11 00:18:51;;;;;;;0.45;0.35;;;18.10;99.90;;;;;;5010725;28;20221;-65
2023/07/11 00:21:17;;;;;;;0.75;0.70;;;18.10;99.90;;;;;;4992959;28;20723;-64
2023/07/11 00:23:43;;;;;;;0.20;0.20;;;18.20;99.90;;;;;;5010818;28;20213;-64
2023/07/11 00:26:09;;;;;;;0.57;0.57;;;18.10;99.90;;;;;;5010738;28;20209;-64
2023/07/11 00:28:34;;;;;;;0.65;0.65;;;18.10;99.90;;;;;;5010189;28;20646;-64
2023/07/11 00:31:00;;;;;;;0.22;0.22;;;18.00;99.90;;;;;;5010750;28;20198;-64
2023/07/11 00:33:26;;;;;;;0.80;0.63;;;17.90;99.90;;;;;;5010438;28;20626;-65
2023/07/11 00:35:53;;;;;;;0.35;0.35;;;17.80;99.90;;;;;;5013080;28;20332;-65
2023/07/11 00:38:19;;;;;;;0.50;0.50;;;17.80;99.90;;;;;;5030545;28;20210;-64
2023/07/11 00:40:48;;;;;;;1.35;0.70;;;17.90;99.90;;;;;;5034069;28;20221;-64
2023/07/11 00:43:16;;;;;;;0.57;0.50;;;17.90;99.90;;;;;;5034028;28;20201;-64
2023/07/11 00:46:05;;;;;;;2.00;1.20;;;17.90;99.90;;;;;;5032637;28;20198;-64
2023/07/11 00:48:37;;;;;;;0.77;0.73;;;18.00;99.90;;;;;;5032128;28;20199;-64
2023/07/11 00:51:10;;;;;;;0.98;0.90;;;18.00;99.90;;;;;;5014238;28;20202;-64
2023/07/11 00:53:39;;;;;;;0.63;0.63;;;18.00;99.90;;;;;;5013686;28;20589;-64
2023/07/11 00:56:08;;;;;;;0.30;0.30;;;18.00;99.90;;;;;;5014261;28;20194;-64
2023/07/11 00:58:37;;;;;;;0.70;0.68;;;18.00;99.90;;;;;;5013864;28;20325;-64
2023/07/11 01:01:04;;;;;;;0.43;0.43;;;18.00;99.90;;;;;;5015134;28;20294;-67
2023/07/11 01:03:29;;;;;;;2.63;0.80;;;17.90;99.90;;;;;;5032001;22;20245;-68
2023/07/11 01:05:57;;;;;;;1.20;0.82;;;17.90;99.90;;;;;;5032059;28;20596;-68
2023/07/11 01:08:24;;;;;;;1.35;0.77;;;17.80;99.90;;;;;;5018370;28;20672;-67
2023/07/11 01:10:50;;;;;;;0.50;0.50;;;17.80;99.90;;;;;;5013671;28;20219;-67
2023/07/11 01:13:16;;;;;;;0.22;0.22;;;17.80;99.90;;;;;;5014033;28;20280;-67
2023/07/11 01:15:42;;;;;;;0.60;0.60;;;17.90;99.90;;;;;;5014086;28;20202;-69
2023/07/11 01:18:07;;;;;;;0.50;0.50;;;18.00;99.90;;;;;;4996397;28;20199;-68
2023/07/11 01:20:33;;;;;;;0.35;0.35;;;18.10;99.90;;;;;;4996377;28;20262;-68
2023/07/11 01:22:59;;;;;;;0.55;0.55;;;18.10;99.90;;;;;;4996484;28;20641;-68
2023/07/11 01:25:25;;;;;;;0.57;0.57;;;18.20;99.90;;;;;;5013609;28;20195;-69
2023/07/11 01:27:51;;;;;;;0.40;0.40;;;18.20;99.90;;;;;;4996446;28;20203;-68
2023/07/11 01:30:20;;;;;;;0.73;0.47;;;18.20;99.90;;;;;;5013768;28;20214;-68
2023/07/11 01:32:47;;;;;;;0.63;0.63;;;18.00;99.90;;;;;;4996156;28;20210;-68
2023/07/11 01:35:14;;;;;;;0.50;0.50;;;18.00;99.90;;;;;;5013858;28;20226;-69
2023/07/11 01:37:40;;;;;;;0.65;0.60;;;18.10;99.90;;;;;;5024562;28;20695;-69
2023/07/11 01:40:06;;;;;;;0.45;0.45;;;18.10;99.90;;;;;;5032509;28;20210;-69
2023/07/11 01:42:32;;;;;;;0.88;0.63;;;18.10;99.90;;;;;;5032642;28;20567;-68
2023/07/11 01:44:58;;;;;;;0.63;0.63;;;18.00;99.90;;;;;;5030653;28;20206;-67
2023/07/11 01:47:24;;;;;;;1.17;0.50;;;18.00;99.90;;;;;;5013357;28;20228;-67
2023/07/11 01:49:49;;;;;;;0.95;0.60;;;18.00;99.90;;;;;;5013593;28;20276;-68
2023/07/11 01:52:18;;;;;;;0.60;0.52;;;17.80;99.90;;;;;;5013471;28;20195;-67
2023/07/11 01:54:44;;;;;;;0.43;0.43;;;17.80;99.90;;;;;;5013485;28;20198;-67
2023/07/11 01:57:10;;;;;;;0.47;0.47;;;17.80;99.90;;;;;;5013453;28;20214;-68
2023/07/11 01:59:37;;;;;;;0.80;0.80;;;17.80;99.90;;;;;;5012856;28;20202;-68
2023/07/11 02:02:04;;;;;;;0.40;0.40;;;17.90;99.90;;;;;;5012132;28;20650;-68
2023/07/11 02:04:31;;;;;;;0.70;0.63;;;17.90;99.90;;;;;;5012308;28;20229;-67
2023/07/11 02:06:57;;;;;;;0.40;0.40;;;17.90;99.90;;;;;;5012978;28;20202;-66
2023/07/11 02:09:23;;;;;;;0.50;0.50;;;17.90;99.90;;;;;;5012980;28;20199;-67
2023/07/11 02:11:49;;;;;;;0.88;0.68;;;17.90;99.90;;;;;;5013372;28;20724;-67
2023/07/11 02:14:18;;;;;;;0.40;0.40;;;18.00;99.90;;;;;;5021201;28;20194;-67
2023/07/11 02:16:45;;;;;;;0.30;0.30;;;18.00;99.90;;;;;;5013503;28;20203;-67
2023/07/11 02:19:12;;;;;;;1.67;0.63;;;18.00;99.90;;;;;;5013278;28;20466;-67
2023/07/11 02:21:38;;;;;;;0.65;0.65;;;18.20;99.90;;;;;;5012897;28;20230;-66
2023/07/11 02:24:07;;;;;;;0.30;0.30;;;18.10;99.90;;;;;;5012225;28;20187;-68
2023/07/11 02:26:33;;;;;;;0.20;0.20;;;18.20;99.90;;;;;;5011425;28;20202;-69
2023/07/11 02:28:58;;;;;;;0.55;0.55;;;18.20;99.90;;;;;;5012910;28;20282;-69
2023/07/11 02:31:24;;;;;;;0.98;0.70;;;18.30;99.90;;;;;;5011529;28;20543;-68
2023/07/11 02:33:50;;;;;;;0.45;0.43;;;18.30;99.90;;;;;;5012843;28;20183;-69
2023/07/11 02:36:16;;;;;;;0.47;0.47;;;18.30;99.90;;;;;;5012757;28;20253;-70
2023/07/11 02:38:41;;;;;;;3.17;1.05;;;18.30;99.90;;;;;;5032140;28;20190;-68
2023/07/11 02:41:07;;;;;;;0.55;0.55;;;18.20;99.90;;;;;;5029726;28;20202;-68
2023/07/11 02:43:33;;;;;;;0.30;0.30;;;18.20;99.90;;;;;;5012367;28;20252;-68
2023/07/11 02:45:59;;;;;;;1.08;0.80;;;18.10;99.90;;;;;;5012225;28;20202;-68
2023/07/11 02:48:26;;;;;;;0.32;0.32;;;18.10;99.90;;;;;;5011972;28;20191;-67
2023/07/11 02:50:52;;;;;;;0.30;0.30;;;18.00;99.90;;;;;;4994639;28;20199;-67
2023/07/11 02:53:18;;;;;;;0.30;0.30;;;17.90;99.90;;;;;;5011948;28;20269;-68
2023/07/11 02:55:44;;;;;;;0.47;0.47;;;17.90;99.90;;;;;;4994296;28;20210;-67
2023/07/11 02:58:10;;;;;;;0.55;0.40;;;17.90;99.90;;;;;;5011955;28;20245;-67
2023/07/11 03:00:36;;;;;;;0.25;0.25;;;17.90;99.90;;;;;;5011562;28;20211;-67
2023/07/11 03:03:03;;;;;;;0.40;0.40;;;18.00;99.90;;;;;;4992877;28;20194;-69
2023/07/11 03:05:29;;;;;;;0.30;0.30;;;18.00;99.90;;;;;;5011728;28;20251;-67
2023/07/11 03:07:55;;;;;;;0.63;0.63;;;17.90;99.90;;;;;;5012174;28;20221;-67
2023/07/11 03:10:20;;;;;;;0.40;0.40;;;17.70;99.90;;;;;;5011835;28;20195;-68
2023/07/11 03:12:46;;;;;;;0.30;0.30;;;17.60;99.90;;;;;;5011657;28;20298;-67
2023/07/11 03:15:12;;;;;;;0.30;0.30;;;17.60;99.90;;;;;;5011351;28;20634;-66
2023/07/11 03:17:38;;;;;;;0.52;0.52;;;17.70;99.90;;;;;;5011937;28;20711;-67
2023/07/11 03:20:04;;;;;;;0.70;0.55;;;17.70;99.90;;;;;;5012114;28;20298;-67
2023/07/11 03:22:30;;;;;;;0.40;0.40;;;17.50;99.90;;;;;;4994236;28;20207;-67
2023/07/11 03:24:56;;;;;;;0.30;0.30;;;17.40;99.90;;;;;;5011875;28;20202;-67
2023/07/11 03:27:21;;;;;;;0.80;0.75;;;17.40;99.90;;;;;;4993761;28;20194;-67
2023/07/11 03:29:47;;;;;;;0.68;0.47;;;17.30;99.90;;;;;;4994111;28;20202;-67
2023/07/11 03:32:13;;;;;;;0.32;0.32;;;17.20;99.90;;;;;;5011702;28;20210;-68
2023/07/11 03:34:39;;;;;;;0.20;0.20;;;17.20;99.90;;;;;;5011465;28;20195;-68
2023/07/11 03:37:05;;;;;;;0.30;0.30;;;17.20;99.90;;;;;;5018101;28;20194;-67
2023/07/11 03:39:32;;;;;;;0.20;0.20;;;17.20;99.90;;;;;;4993723;28;20689;-67
2023/07/11 03:41:57;;;;;;;0.20;0.20;;;17.30;99.90;;;;;;5011580;28;20187;-67
2023/07/11 03:44:23;;;;;;;0.40;0.40;;;17.30;99.90;;;;;;5011296;28;20209;-67
2023/07/11 03:46:49;;;;;;;0.38;0.38;;;17.30;99.90;;;;;;5010365;28;20189;-68
2023/07/11 03:49:14;;;;;;;1.05;0.93;;;17.40;99.90;;;;;;4993944;28;20744;-68
2023/07/11 03:51:41;;;;;;;0.43;0.43;;;17.50;99.90;;;;;;5010810;28;20281;-68
2023/07/11 03:54:07;;;;;;;0.30;0.30;;;17.60;99.90;;;;;;4993883;28;20665;-68
2023/07/11 03:56:32;;;;;;;3.92;0.60;;;17.70;99.90;;;;;;5011148;28;20204;-68
2023/07/11 03:58:58;;;;;;;0.90;0.88;;;17.70;99.90;;;;;;5011286;28;20290;-68
2023/07/11 04:01:24;;;;;;;0.40;0.40;;;17.70;99.90;;;;;;5011073;28;20249;-68
2023/07/11 04:03:49;;;;;;;0.63;0.60;;;17.70;99.90;;;;;;5010935;28;20222;-67
2023/07/11 04:06:15;;;;;;;0.57;0.57;;;17.60;99.90;;;;;;5011249;28;20191;-67
2023/07/11 04:08:41;;;;;;;0.20;0.20;;;17.40;99.90;;;;;;5011443;28;20290;-68
2023/07/11 04:11:07;;;;;;;5.57;0.65;;;17.50;99.90;;;;;;5014916;28;20673;-67
2023/07/11 04:13:32;;;;;;;0.30;0.30;;;17.40;99.90;;;;;;5010291;28;20298;-67
2023/07/11 04:15:58;;;;;;;0.40;0.40;;;17.40;99.90;;;;;;4994478;28;20737;-66
2023/07/11 04:18:24;;;;;;;0.47;0.47;;;17.40;99.90;;;;;;4995235;28;20287;-68
2023/07/11 04:20:50;;;;;;;1.27;0.57;;;17.50;99.90;;;;;;4995455;28;20239;-68
2023/07/11 04:23:16;;;;;;;0.88;0.88;;;17.50;99.90;;;;;;4995359;28;20246;-67
2023/07/11 04:25:42;;;;;;;0.43;0.43;;;17.40;99.90;;;;;;4995362;28;20223;-68
2023/07/11 04:28:08;;;;;;;0.38;0.38;;;17.40;99.90;;;;;;4995349;28;20195;-68
2023/07/11 04:30:33;;;;;;;1.20;0.85;;;17.40;99.90;;;;;;4993072;28;20226;-68
2023/07/11 04:32:59;;;;;;;1.08;0.93;;;17.30;99.90;;;;;;4995044;28;20195;-68
2023/07/11 04:35:25;;;;;;;0.25;0.25;;;17.40;99.90;;;;;;4994437;28;20199;-67
2023/07/11 04:37:51;;;;;;;0.40;0.40;;;17.50;99.90;;;;;;5007708;28;20198;-67
2023/07/11 04:40:17;;;;;;;1.13;0.82;;;17.40;99.90;;;;;;5015160;28;20669;-68
2023/07/11 04:42:42;;;;;;;0.40;0.40;;;17.30;99.90;;;;;;5014542;28;20215;-68
2023/07/11 04:45:09;;;;;;;0.30;0.30;;;17.30;99.90;;;;;;5014484;28;20238;-67
2023/07/11 04:47:35;;;;;;;0.22;0.22;;;17.30;99.90;;;;;;5014390;28;20215;-67
2023/07/11 04:50:02;;;;;;;1.08;0.77;;;17.40;99.90;;;;;;5013275;28;20210;-67
2023/07/11 04:52:28;;;;;;;0.47;0.47;;;17.60;99.90;;;;;;5029395;28;20241;-67
2023/07/11 04:54:54;;;;;;;0.43;0.40;;;17.70;99.90;;;;;;5013253;28;20199;-67
2023/07/11 04:57:21;;;;;;;0.50;0.50;;;17.70;99.90;;;;;;4998132;28;20238;-69
2023/07/11 04:59:47;;;;;;;0.60;0.60;;;17.70;99.90;;;;;;4993427;28;20211;-66
2023/07/11 05:02:13;;;;;;;0.50;0.50;;;17.80;99.90;;;;;;4994778;28;20199;-67
2023/07/11 05:04:39;;;;;;;1.33;1.23;;;17.70;99.90;;;;;;5006595;28;20234;-67
2023/07/11 05:07:05;;;;;;;0.30;0.30;;;17.70;99.90;;;;;;5014195;28;20570;-66
2023/07/11 05:09:31;;;;;;;0.30;0.30;;;17.80;99.90;;;;;;5013443;28;20831;-67
2023/07/11 05:11:57;;;;;;;0.80;0.80;;;17.90;99.90;;;;;;5014036;28;20281;-67
2023/07/11 05:14:26;;;;;;;4.38;1.00;;;18.10;99.90;;;;;;5013280;28;20681;-67
2023/07/11 05:16:51;;;;;;;0.47;0.47;;;18.20;99.90;;;;;;5013807;28;20248;-68
2023/07/11 05:19:18;;;;;;;0.43;0.43;;;18.30;99.90;;;;;;5012440;28;20226;-68
2023/07/11 05:21:43;;;;;;;0.70;0.70;;;18.30;99.90;;;;;;5013504;28;20638;-68
2023/07/11 05:24:09;;;;;;;0.40;0.40;;;18.30;99.90;;;;;;5013862;28;20317;-68
2023/07/11 05:26:36;;;;;;;1.20;0.90;;;18.20;99.90;;;;;;5013609;28;20708;-68
2023/07/11 05:29:04;;;;;;;0.30;0.30;;;18.20;99.90;;;;;;5014006;28;20680;-67
2023/07/11 05:31:30;;;;;;;0.30;0.30;;;18.20;99.90;;;;;;5013605;28;20309;-67
2023/07/11 05:33:55;;;;;;;0.40;0.40;;;18.40;99.90;;;;;;5012521;28;20758;-67
2023/07/11 05:39:17;;;;;;;0.30;0.30;;;18.40;99.90;;;;;;5033614;28;20339;-66
2023/07/11 05:41:50;;;;;;;0.57;0.57;;;18.40;99.90;;;;;;5032927;28;20578;-68
2023/07/11 05:44:16;;;;;;;0.50;0.50;;;18.40;99.90;;;;;;5015571;28;20216;-68
2023/07/11 05:46:42;;;;;;;0.50;0.45;;;18.40;99.90;;;;;;5033516;28;20664;-68
2023/07/11 05:49:08;;;;;;;0.47;0.47;;;18.60;99.90;;;;;;5015737;28;20396;-67
2023/07/11 05:51:34;;;;;;;0.77;0.60;;;18.50;99.90;;;;;;5015232;28;20870;-68
2023/07/11 05:54:00;;;;;;;0.63;0.63;;;18.40;99.90;;;;;;5008779;28;20319;-68
2023/07/11 05:56:26;;;;;;;1.00;0.80;;;18.40;99.90;;;;;;4993531;28;20219;-68
2023/07/11 05:58:52;;;;;;;0.30;0.30;;;18.40;99.90;;;;;;5008093;28;20278;-68
2023/07/11 06:01:21;;;;;;;0.57;0.57;;;18.50;99.90;;;;;;4993461;28;20600;-70
2023/07/11 06:03:52;;;;;;;0.95;0.93;;;18.50;99.90;;;;;;4993182;28;20230;-69
2023/07/11 06:06:19;;;;;;;0.60;0.50;;;18.30;99.90;;;;;;4992030;28;20278;-70
2023/07/11 06:08:45;;;;;;;0.57;0.57;;;18.40;99.90;;;;;;4993546;28;20701;-69
2023/07/11 06:11:11;;;;;;;0.30;0.30;;;18.30;99.90;;;;;;5009104;28;20547;-69
2023/07/11 06:13:39;;;;;;;0.32;0.32;;;18.10;99.90;;;;;;4995142;28;20206;-69
2023/07/11 06:16:11;;;;;;;0.90;0.85;;;18.10;99.90;;;;;;4995404;28;20210;-69
2023/07/11 06:18:38;;;;;;;0.57;0.52;;;18.00;99.90;;;;;;5012663;28;20191;-68
2023/07/11 06:21:06;;;;;;;0.60;0.60;;;18.00;99.90;;;;;;5012892;28;20214;-68
2023/07/11 06:23:32;;;;;;;0.60;0.60;;;17.80;99.90;;;;;;5012531;28;20194;-68
2023/07/11 06:25:58;;;;;;;0.30;0.30;;;17.80;99.90;;;;;;5012694;28;20720;-68
2023/07/11 06:28:24;;;;;;;0.47;0.47;;;17.80;99.90;;;;;;5012284;28;20273;-69
2023/07/11 06:30:50;;;;;;;0.45;0.45;;;17.90;99.90;;;;;;4994779;28;20203;-68
2023/07/11 06:33:18;;;;;;;0.75;0.57;;;17.90;99.90;;;;;;5011837;28;20615;-68
2023/07/11 06:35:51;;;;;;;0.70;0.70;;;18.00;99.90;;;;;;5011363;28;20195;-68
2023/07/11 06:38:20;;;;;;;0.93;0.80;;;18.10;99.90;;;;;;5027130;28;20207;-68
2023/07/11 06:40:52;;;;;;;0.55;0.50;;;18.20;99.90;;;;;;5032012;28;20234;-68
2023/07/11 06:43:19;;;;;;;2.05;1.02;;;18.30;99.90;;;;;;5031995;28;20186;-69
2023/07/11 06:45:49;;;;;;;1.48;1.25;;;18.20;99.90;;;;;;5032093;28;20717;-68
2023/07/11 06:48:17;;;;;;;1.88;0.73;;;18.30;99.90;;;;;;5028192;28;20598;-68
2023/07/11 06:50:50;;;;;;;0.88;0.85;;;18.30;99.90;;;;;;5011859;28;20713;-67
2023/07/11 06:53:16;;;;;;;0.57;0.57;;;18.50;99.90;;;;;;5012682;28;20266;-67
2023/07/11 06:55:50;;;;;;;0.88;0.80;;;18.50;99.90;;;;;;5012105;28;20199;-68
2023/07/11 06:58:16;;;;;;;0.30;0.30;;;18.40;99.90;;;;;;4994708;28;20195;-68
2023/07/11 07:00:43;;;;;;;0.68;0.68;;;18.40;99.90;;;;;;5011839;28;20207;-67
2023/07/11 07:03:13;;;;;;;0.45;0.45;;;18.40;99.90;;;;;;5011774;28;20191;-68
2023/07/11 07:05:56;;;;;;;0.38;0.38;;;18.30;99.90;;;;;;5011721;28;20708;-67
2023/07/11 07:08:24;;;;;;;0.65;0.65;;;18.30;99.90;;;;;;4993943;28;20202;-68
2023/07/11 07:10:50;;;;;;;0.73;0.73;;;18.10;99.90;;;;;;5011988;28;20203;-68
2023/07/11 07:13:18;;;;;;;0.55;0.55;;;17.90;99.90;;;;;;5011948;28;20289;-68
2023/07/11 07:15:53;;;;;;;0.65;0.65;;;17.80;99.90;;;;;;5011896;28;20191;-68
2023/07/11 07:18:20;;;;;;;0.50;0.50;;;17.80;99.90;;;;;;5011412;28;20197;-69
2023/07/11 07:20:47;;;;;;;1.25;1.00;;;17.90;99.90;;;;;;5011614;28;20266;-68
2023/07/11 07:23:14;;;;;;;0.68;0.65;;;17.80;99.90;;;;;;5011562;28;20195;-69
2023/07/11 07:25:40;;;;;;;1.40;1.00;;;17.70;99.90;;;;;;5011523;28;20198;-68
2023/07/11 07:28:07;;;;;;;1.17;0.60;;;17.80;99.90;;;;;;5011500;28;20202;-68
2023/07/11 07:30:34;;;;;;;0.43;0.43;;;18.00;99.90;;;;;;5011091;28;20808;-68
2023/07/11 07:33:00;;;;;;;0.28;0.28;;;18.20;99.90;;;;;;5011897;28;20190;-67
2023/07/11 07:35:26;;;;;;;1.23;0.95;;;18.40;99.90;;;;;;5011112;28;20190;-68
2023/07/11 07:37:52;;;;;;;0.60;0.60;;;18.50;99.90;;;;;;5024159;28;20273;-67
2023/07/11 07:40:18;;;;;;;0.47;0.47;;;18.40;99.90;;;;;;5031119;28;20337;-69
2023/07/11 07:42:44;;;;;;;0.35;0.35;;;18.50;99.90;;;;;;5030670;28;20649;-66
2023/07/11 07:45:09;;;;;;;0.25;0.25;;;18.60;99.90;;;;;;5022154;28;20191;-68
2023/07/11 07:47:35;;;;;;;0.55;0.55;;;18.80;99.90;;;;;;5011269;28;20209;-68
2023/07/11 07:50:02;;;;;;;0.45;0.45;;;18.90;99.90;;;;;;5011868;28;20194;-67
2023/07/11 07:52:28;;;;;;;0.30;0.30;;;19.00;99.90;;;;;;5011412;28;20214;-68
2023/07/11 07:54:54;;;;;;;0.45;0.45;;;19.10;99.90;;;;;;5011762;28;20198;-69
2023/07/11 07:57:19;;;;;;;0.40;0.40;;;19.10;99.90;;;;;;5011351;28;20209;-68
2023/07/11 07:59:45;;;;;;;0.50;0.50;;;19.00;99.90;;;;;;4993578;28;20211;-68
2023/07/11 08:02:11;;;;;;;1.70;1.25;;;19.10;99.90;;;;;;4993973;28;20202;-68
2023/07/11 08:04:37;;;;;;;1.13;0.80;;;19.20;99.90;;;;;;5010890;28;20268;-68
2023/07/11 08:07:03;;;;;;;2.25;0.60;;;19.10;99.90;;;;;;5011261;28;20793;-68
2023/07/11 08:09:29;;;;;;;0.63;0.63;;;19.20;99.90;;;;;;5011143;28;20198;-68
2023/07/11 08:12:03;;;;;;;0.45;0.40;;;19.10;99.90;;;;;;5011304;28;20649;-68
2023/07/11 08:14:29;;;;;;;0.45;0.45;;;19.30;99.90;;;;;;5010867;28;20672;-67
2023/07/11 08:16:54;;;;;;;4.97;0.60;;;19.30;99.90;;;;;;5010839;28;20197;-68
2023/07/11 08:19:20;;;;;;;0.40;0.40;;;19.10;99.90;;;;;;5010671;28;20214;-68
2023/07/11 08:21:46;;;;;;;0.43;0.43;;;19.00;99.90;;;;;;4993117;28;20282;-68
2023/07/11 08:24:12;;;;;;;0.40;0.40;;;19.00;99.90;;;;;;5010659;28;20226;-68
2023/07/11 08:26:38;;;;;;;0.55;0.55;;;19.00;99.90;;;;;;5010706;28;20667;-69
2023/07/11 08:29:04;;;;;;;0.30;0.30;;;19.20;99.90;;;;;;5010771;28;20191;-68
2023/07/11 08:31:30;;;;;;;0.47;0.47;;;19.30;99.90;;;;;;5010825;28;20214;-68
2023/07/11 08:33:56;;;;;;;0.75;0.68;;;19.30;99.90;;;;;;5010921;28;20592;-68
2023/07/11 08:36:21;;;;;;;0.68;0.68;;;19.20;99.90;;;;;;5011291;28;20191;-67
2023/07/11 08:38:47;;;;;;;0.68;0.68;;;19.20;99.90;;;;;;5012522;28;20339;-67
2023/07/11 08:41:16;;;;;;;1.17;0.70;;;19.40;99.90;;;;;;5023268;28;20673;-67
2023/07/11 08:43:43;;;;;;;0.38;0.38;;;19.60;99.90;;;;;;5009153;28;20230;-67
2023/07/11 08:46:14;;;;;;;0.40;0.40;;;19.80;99.90;;;;;;5010645;28;20199;-67
2023/07/11 08:48:51;;;;;;;0.47;0.47;;;20.10;99.90;;;;;;5010392;28;20277;-67
2023/07/11 08:51:35;;;;;;;0.45;0.45;;;20.10;99.90;;;;;;4992707;28;20202;-69
2023/07/11 08:54:22;;;;;;;0.85;0.85;;;20.10;99.90;;;;;;5010603;28;20199;-68
2023/07/11 08:56:49;;;;;;;3.20;0.95;;;20.00;99.90;;;;;;5013186;28;20591;-68
2023/07/11 08:59:35;;;;;;;0.50;0.50;;;19.90;99.90;;;;;;5013759;28;20294;-67
2023/07/11 09:02:09;;;;;;;0.50;0.50;;;19.80;99.90;;;;;;4994682;28;20289;-68
2023/07/11 09:04:43;;;;;;;0.43;0.43;;;19.60;99.90;;;;;;4993955;28;20313;-67
2023/07/11 09:07:40;;;;;;;0.52;0.52;;;19.70;99.90;;;;;;4994370;28;20199;-67
2023/07/11 09:10:32;;;;;;;0.40;0.40;;;19.50;99.90;;;;;;4994309;28;20300;-67
2023/07/11 09:13:16;;;;;;;0.38;0.38;;;19.20;99.90;;;;;;4964092;28;20611;-67
2023/07/11 09:15:46;;;;;;;0.63;0.50;;;19.20;99.90;;;;;;4994087;28;20187;-68
2023/07/11 09:18:37;;;;;;;1.02;0.68;;;19.20;99.90;;;;;;4994532;28;20690;-68
2023/07/11 09:21:26;;;;;;;0.32;0.32;;;19.40;99.90;;;;;;4994381;28;20605;-67
2023/07/11 09:24:13;;;;;;;0.82;0.80;;;19.60;99.90;;;;;;4994018;28;20270;-66
2023/07/11 09:26:47;;;;;;;0.57;0.57;;;19.80;99.90;;;;;;4992344;28;20195;-67
2023/07/11 09:29:15;;;;;;;0.32;0.32;;;20.00;99.90;;;;;;4993523;28;20220;-67
2023/07/11 09:31:46;;;;;;;0.75;0.73;;;20.10;99.90;;;;;;5010573;28;20195;-67
2023/07/11 09:34:26;;;;;;;0.60;0.60;;;20.20;99.90;;;;;;4995830;28;20244;-68
2023/07/11 09:36:55;;;;;;;1.95;1.20;;;20.20;99.90;;;;;;5015516;28;20588;-67
2023/07/11 09:39:42;;;;;;;0.57;0.55;;;20.20;99.90;;;;;;5012968;28;20795;-68
2023/07/11 09:42:29;;;;;;;0.80;0.40;;;20.20;99.90;;;;;;5013089;28;20195;-67
2023/07/11 09:45:05;;;;;;;1.58;0.90;;;20.20;99.90;;;;;;5013195;28;20245;-68
2023/07/11 09:47:32;;;;;;;0.80;0.50;;;20.60;99.90;;;;;;5013015;28;20183;-67
2023/07/11 09:50:00;;;;;;;0.95;0.82;;;21.00;99.90;;;;;;5012915;28;20736;-67
2023/07/11 09:52:28;;;;;;;1.38;1.10;;;21.20;99.90;;;;;;5011758;28;20206;-67
2023/07/11 09:54:54;;;;;;;0.82;0.68;;;21.10;99.90;;;;;;5013276;28;20662;-67
2023/07/11 09:57:20;;;;;;;0.50;0.50;;;20.90;99.90;;;;;;5013102;28;20199;-68
2023/07/11 10:00:00;;;;;;;1.52;0.57;;;20.80;99.90;;;;;;5012862;28;20743;-67
2023/07/11 10:02:26;;;;;;;0.60;0.60;;;20.60;99.90;;;;;;5012806;28;20574;-68
2023/07/11 10:04:58;;;;;;;0.68;0.68;;;20.40;99.90;;;;;;5011222;28;20227;-68
2023/07/11 10:07:29;;;;;;;0.45;0.45;;;20.40;99.90;;;;;;5011573;28;20650;-67
2023/07/11 10:10:02;;;;;;;1.38;0.98;;;20.50;99.90;;;;;;5012956;28;20191;-67
2023/07/11 10:12:29;;;;;;;0.30;0.30;;;20.60;99.90;;;;;;5012739;28;20195;-67
2023/07/11 10:14:58;;;;;;;0.30;0.30;;;20.70;99.90;;;;;;4995108;28;20202;-68
2023/07/11 10:17:30;;;;;;;0.50;0.35;;;20.70;99.90;;;;;;4994806;28;20203;-67
2023/07/11 10:19:57;;;;;;;0.57;0.50;;;20.60;99.90;;;;;;5012628;28;20210;-67
2023/07/11 10:22:29;;;;;;;0.68;0.60;;;20.40;99.90;;;;;;5012406;28;20605;-67
2023/07/11 10:25:11;;;;;;;0.52;0.52;;;20.30;99.90;;;;;;5012615;28;20700;-67
2023/07/11 10:27:37;;;;;;;0.55;0.32;;;20.10;99.90;;;;;;5012413;28;20194;-67
2023/07/11 10:30:05;;;;;;;0.50;0.50;;;20.00;99.90;;;;;;5012409;28;20568;-67
2023/07/11 10:32:39;;;;;;;0.43;0.43;;;19.90;99.90;;;;;;5010956;28;20309;-67
2023/07/11 10:35:13;;;;;;;0.77;0.77;;;19.70;99.90;;;;;;5012376;28;20207;-68
2023/07/11 10:37:43;;;;;;;1.10;0.70;;;19.50;99.90;;;;;;5023068;28;20205;-68
2023/07/11 10:40:15;;;;;;;1.02;0.65;;;19.60;99.90;;;;;;5032092;28;20238;-69
2023/07/11 10:42:50;;;;;;;0.40;0.40;;;19.80;99.90;;;;;;5031803;28;20213;-68
2023/07/11 10:45:24;;;;;;;0.45;0.45;;;20.10;99.90;;;;;;5032108;28;20210;-68
2023/07/11 10:48:23;;;;;;;0.25;0.25;;;20.70;99.90;;;;;;5032014;28;20518;-68
2023/07/11 10:51:01;;;;;;;0.30;0.30;;;21.60;99.90;;;;;;5011176;28;20235;-67
2023/07/11 10:53:45;;;;;;;0.30;0.30;;;22.00;99.90;;;;;;5011765;28;20194;-67
2023/07/11 10:56:19;;;;;;;0.30;0.30;;;21.90;99.90;;;;;;5012071;28;20222;-68
2023/07/11 10:58:45;;;;;;;0.40;0.40;;;21.80;99.90;;;;;;5012068;28;20281;-68
2023/07/11 11:01:39;;;;;;;0.40;0.40;;;21.80;99.90;;;;;;5011930;28;20226;-68
2023/07/11 11:04:23;;;;;;;0.28;0.28;;;21.20;99.90;;;;;;4994036;28;20285;-68
2023/07/11 11:07:07;;;;;;;0.20;0.20;;;21.30;99.90;;;;;;5012032;28;20282;-68
2023/07/11 11:10:17;;;;;;;0.43;0.43;;;21.50;99.90;;;;;;5011740;28;20202;-68
2023/07/11 11:13:10;;;;;;;0.28;0.28;;;21.70;99.90;;;;;;5001183;28;20211;-67
2023/07/11 11:15:39;;;;;;;0.40;0.38;;;22.20;99.90;;;;;;5011220;28;20214;-67
2023/07/11 11:18:23;;;;;;;0.30;0.30;;;22.30;99.90;;;;;;5011471;28;20195;-68
2023/07/11 11:21:11;;;;;;;0.30;0.30;;;22.50;99.90;;;;;;5009914;28;20284;-67
2023/07/11 11:24:04;;;;;;;0.43;0.38;;;22.70;99.90;;;;;;5011298;28;20205;-68
2023/07/11 11:26:52;;;;;;;0.50;0.50;;;22.60;99.90;;;;;;5011371;28;20191;-68
2023/07/11 11:30:02;;;;;;;0.38;0.38;;;22.40;99.90;;;;;;5011374;28;20251;-70
2023/07/11 11:32:53;;;;;;;0.40;0.40;;;22.70;99.90;;;;;;4974767;28;20594;-68
2023/07/11 11:35:34;;;;;;;1.45;0.38;;;22.60;99.90;;;;;;4991602;28;20239;-68
2023/07/11 11:38:25;;;;;;;0.63;0.57;;;22.40;99.90;;;;;;5019636;28;20273;-68
2023/07/11 11:40:55;;;;;;;0.30;0.30;;;22.30;99.90;;;;;;5031218;28;20285;-68
2023/07/11 11:43:24;;;;;;;0.20;0.20;;;22.40;99.90;;;;;;5030933;28;20198;-68
2023/07/11 11:45:51;;;;;;;0.50;0.50;;;22.40;99.90;;;;;;5031137;28;20187;-69
2023/07/11 11:48:27;;;;;;;0.40;0.40;;;22.30;99.90;;;;;;5016550;28;20203;-71
2023/07/11 11:50:54;;;;;;;0.22;0.22;;;21.90;99.90;;;;;;4993370;28;20701;-70
2023/07/11 11:53:45;;;;;;;0.40;0.40;;;21.80;99.90;;;;;;5010732;28;20650;-70
2023/07/11 11:56:16;;;;;;;0.38;0.38;;;21.80;99.90;;;;;;5011046;28;20191;-69
2023/07/11 11:58:53;;;;;;;0.40;0.40;;;21.50;99.90;;;;;;5011144;28;20222;-70
2023/07/11 12:01:38;;;;;;;0.43;0.43;;;21.70;99.90;;;;;;5009806;28;20579;-70
2023/07/11 12:04:25;;;;;;;0.20;0.20;;;22.00;99.90;;;;;;5010713;28;20336;-69
2023/07/11 12:06:51;;;;;;;0.60;0.50;;;22.40;99.90;;;;;;5011416;28;20249;-69
2023/07/11 12:09:17;;;;;;;0.30;0.30;;;22.50;99.90;;;;;;5011503;28;20199;-69
2023/07/11 12:11:44;;;;;;;1.38;0.77;;;23.30;99.90;;;;;;5011374;28;20199;-69
2023/07/11 12:14:19;;;;;;;0.68;0.50;;;24.10;99.90;;;;;;5011206;28;20187;-69
2023/07/11 12:16:49;;;;;;;0.47;0.40;;;24.40;99.90;;;;;;5011422;28;20187;-68
2023/07/11 12:19:30;;;;;;;0.30;0.30;;;24.70;99.90;;;;;;5011220;28;20224;-68
2023/07/11 12:22:05;;;;;;;0.30;0.30;;;24.80;99.90;;;;;;5010114;28;20195;-68
2023/07/11 12:24:34;;;;;;;0.40;0.30;;;24.40;99.90;;;;;;4993446;28;20186;-68
2023/07/11 12:27:18;;;;;;;0.52;0.52;;;24.20;99.90;;;;;;5010827;28;20203;-68
2023/07/11 12:29:49;;;;;;;0.50;0.47;;;24.00;99.90;;;;;;4993598;28;20229;-68
2023/07/11 12:32:32;;;;;;;0.40;0.40;;;24.40;99.90;;;;;;5014652;28;20217;-68
2023/07/11 12:35:13;;;;;;;1.20;0.70;;;24.80;99.90;;;;;;5015056;28;20249;-69
2023/07/11 12:38:00;;;;;;;0.95;0.47;;;24.20;99.90;;;;;;5008093;28;20213;-68
2023/07/11 12:40:36;;;;;;;1.38;0.63;;;24.20;99.90;;;;;;5034086;28;20210;-68
2023/07/11 12:43:03;;;;;;;0.30;0.30;;;24.50;99.90;;;;;;5034714;28;20244;-69
2023/07/11 12:45:37;;;;;;;0.38;0.30;;;24.50;99.90;;;;;;5025065;28;20190;-66
2023/07/11 12:48:11;;;;;;;0.55;0.35;;;24.60;99.90;;;;;;5014583;28;20278;-66
2023/07/11 12:50:42;;;;;;;0.20;0.20;;;24.10;99.90;;;;;;5014556;28;20193;-67
2023/07/11 12:53:08;;;;;;;0.20;0.20;;;24.30;99.90;;;;;;5013308;28;20297;-67
2023/07/11 12:55:34;;;;;;;1.58;0.70;;;24.40;99.90;;;;;;5014630;28;20234;-67
2023/07/11 12:57:59;;;;;;;1.48;0.60;;;24.30;99.90;;;;;;5014463;28;20191;-67
2023/07/11 13:00:29;;;;;;;0.43;0.43;;;23.80;99.90;;;;;;5012678;28;20265;-67
2023/07/11 13:02:59;;;;;;;0.20;0.20;;;23.40;99.90;;;;;;5013015;28;20503;-68
2023/07/11 13:05:25;;;;;;;0.55;0.40;;;24.00;99.90;;;;;;5013970;28;20285;-69